sensor_id;sensor_type;location;lat;lon;timestamp;P1;durP1;ratioP1;P2;durP2;ratioP2
54143;SDS011;40050;47.324;18.792;2022-07-21T00:00:29;4.17;;;2.20;;
54143;SDS011;40050;47.324;18.792;2022-07-21T00:02:30;5.96;;;2.90;;
54143;SDS011;40050;47.324;18.792;2022-07-21T00:04:32;4.37;;;2.20;;
54143;SDS011;40050;47.324;18.792;2022-07-21T00:06:36;3.58;;;2.40;;
54143;SDS011;40050;47.324;18.792;2022-07-21T00:08:44;3.87;;;2.20;;
54143;SDS011;40050;47.324;18.792;2022-07-21T00:10:48;4.37;;;2.40;;
54143;SDS011;40050;47.324;18.792;2022-07-21T00:12:58;3.97;;;2.50;;
54143;SDS011;40050;47.324;18.792;2022-07-21T00:14:59;3.18;;;2.20;;
54143;SDS011;40050;47.324;18.792;2022-07-21T00:17:00;8.04;;;2.50;;
54143;SDS011;40050;47.324;18.792;2022-07-21T00:19:01;6.15;;;2.60;;
54143;SDS011;40050;47.324;18.792;2022-07-21T00:21:02;4.56;;;2.20;;
54143;SDS011;40050;47.324;18.792;2022-07-21T00:23:03;5.56;;;2.30;;
54143;SDS011;40050;47.324;18.792;2022-07-21T00:25:05;3.97;;;2.20;;
54143;SDS011;40050;47.324;18.792;2022-07-21T00:27:06;5.16;;;2.30;;
54143;SDS011;40050;47.324;18.792;2022-07-21T00:29:11;3.57;;;2.40;;
54143;SDS011;40050;47.324;18.792;2022-07-21T00:31:08;5.26;;;2.70;;
54143;SDS011;40050;47.324;18.792;2022-07-21T00:33:10;5.26;;;2.30;;
54143;SDS011;40050;47.324;18.792;2022-07-21T00:35:11;5.16;;;2.70;;
54143;SDS011;40050;47.324;18.792;2022-07-21T00:37:11;3.37;;;2.50;;
54143;SDS011;40050;47.324;18.792;2022-07-21T00:39:12;3.87;;;2.50;;
54143;SDS011;40050;47.324;18.792;2022-07-21T00:41:13;4.56;;;2.80;;
54143;SDS011;40050;47.324;18.792;2022-07-21T00:43:15;4.56;;;2.50;;
54143;SDS011;40050;47.324;18.792;2022-07-21T00:45:16;3.77;;;2.20;;
54143;SDS011;40050;47.324;18.792;2022-07-21T00:47:23;3.37;;;2.30;;
54143;SDS011;40050;47.324;18.792;2022-07-21T00:49:18;2.88;;;2.30;;
54143;SDS011;40050;47.324;18.792;2022-07-21T00:51:20;6.55;;;2.60;;
54143;SDS011;40050;47.324;18.792;2022-07-21T00:53:21;3.27;;;2.40;;
54143;SDS011;40050;47.324;18.792;2022-07-21T00:55:23;3.47;;;2.60;;
54143;SDS011;40050;47.324;18.792;2022-07-21T00:57:24;4.46;;;2.50;;
54143;SDS011;40050;47.324;18.792;2022-07-21T00:59:25;4.26;;;2.30;;
54143;SDS011;40050;47.324;18.792;2022-07-21T01:01:26;4.46;;;2.50;;
54143;SDS011;40050;47.324;18.792;2022-07-21T01:03:29;4.85;;;2.70;;
54143;SDS011;40050;47.324;18.792;2022-07-21T01:05:30;6.14;;;2.60;;
54143;SDS011;40050;47.324;18.792;2022-07-21T01:07:32;4.95;;;2.70;;
54143;SDS011;40050;47.324;18.792;2022-07-21T01:09:33;5.44;;;2.60;;
54143;SDS011;40050;47.324;18.792;2022-07-21T01:11:34;3.17;;;2.60;;
54143;SDS011;40050;47.324;18.792;2022-07-21T01:13:36;7.22;;;2.60;;
54143;SDS011;40050;47.324;18.792;2022-07-21T01:15:37;3.27;;;2.50;;
54143;SDS011;40050;47.324;18.792;2022-07-21T01:17:38;5.44;;;2.70;;
54143;SDS011;40050;47.324;18.792;2022-07-21T01:19:39;9.10;;;2.60;;
54143;SDS011;40050;47.324;18.792;2022-07-21T01:21:52;4.36;;;2.40;;
54143;SDS011;40050;47.324;18.792;2022-07-21T01:23:53;3.96;;;2.60;;
54143;SDS011;40050;47.324;18.792;2022-07-21T01:25:54;4.55;;;2.40;;
54143;SDS011;40050;47.324;18.792;2022-07-21T01:27:57;4.45;;;2.50;;
54143;SDS011;40050;47.324;18.792;2022-07-21T01:29:58;3.07;;;2.60;;
54143;SDS011;40050;47.324;18.792;2022-07-21T01:31:59;4.05;;;2.60;;
54143;SDS011;40050;47.324;18.792;2022-07-21T01:34:00;4.94;;;2.50;;
54143;SDS011;40050;47.324;18.792;2022-07-21T01:36:01;4.25;;;2.60;;
54143;SDS011;40050;47.324;18.792;2022-07-21T01:38:02;3.76;;;2.50;;
54143;SDS011;40050;47.324;18.792;2022-07-21T01:40:04;7.22;;;2.70;;
54143;SDS011;40050;47.324;18.792;2022-07-21T01:42:04;4.05;;;2.60;;
54143;SDS011;40050;47.324;18.792;2022-07-21T01:44:06;5.53;;;2.50;;
54143;SDS011;40050;47.324;18.792;2022-07-21T01:46:08;4.05;;;2.60;;
54143;SDS011;40050;47.324;18.792;2022-07-21T01:48:07;5.63;;;2.80;;
54143;SDS011;40050;47.324;18.792;2022-07-21T01:50:08;4.15;;;2.70;;
54143;SDS011;40050;47.324;18.792;2022-07-21T01:52:09;4.54;;;2.60;;
54143;SDS011;40050;47.324;18.792;2022-07-21T01:54:11;8.69;;;2.70;;
54143;SDS011;40050;47.324;18.792;2022-07-21T01:56:12;5.33;;;2.60;;
54143;SDS011;40050;47.324;18.792;2022-07-21T01:58:13;5.63;;;2.60;;
54143;SDS011;40050;47.324;18.792;2022-07-21T02:00:14;4.64;;;2.60;;
54143;SDS011;40050;47.324;18.792;2022-07-21T02:02:15;5.43;;;3.00;;
54143;SDS011;40050;47.324;18.792;2022-07-21T02:04:16;3.26;;;2.60;;
54143;SDS011;40050;47.324;18.792;2022-07-21T02:06:17;5.73;;;2.60;;
54143;SDS011;40050;47.324;18.792;2022-07-21T02:08:18;3.95;;;2.60;;
54143;SDS011;40050;47.324;18.792;2022-07-21T02:10:19;5.63;;;2.70;;
54143;SDS011;40050;47.324;18.792;2022-07-21T02:12:20;4.83;;;2.80;;
54143;SDS011;40050;47.324;18.792;2022-07-21T02:14:21;5.03;;;2.80;;
54143;SDS011;40050;47.324;18.792;2022-07-21T02:16:22;4.73;;;2.90;;
54143;SDS011;40050;47.324;18.792;2022-07-21T02:18:23;4.14;;;2.80;;
54143;SDS011;40050;47.324;18.792;2022-07-21T02:20:24;3.25;;;2.70;;
54143;SDS011;40050;47.324;18.792;2022-07-21T02:22:25;4.24;;;2.90;;
54143;SDS011;40050;47.324;18.792;2022-07-21T02:24:26;5.42;;;2.80;;
54143;SDS011;40050;47.324;18.792;2022-07-21T02:26:29;7.39;;;2.80;;
54143;SDS011;40050;47.324;18.792;2022-07-21T02:28:30;5.52;;;3.00;;
54143;SDS011;40050;47.324;18.792;2022-07-21T02:30:31;3.15;;;2.60;;
54143;SDS011;40050;47.324;18.792;2022-07-21T02:32:32;5.82;;;2.90;;
54143;SDS011;40050;47.324;18.792;2022-07-21T02:34:33;4.44;;;3.10;;
54143;SDS011;40050;47.324;18.792;2022-07-21T02:36:35;10.46;;;3.10;;
54143;SDS011;40050;47.324;18.792;2022-07-21T02:38:36;6.91;;;3.20;;
54143;SDS011;40050;47.324;18.792;2022-07-21T02:40:37;9.57;;;3.40;;
54143;SDS011;40050;47.324;18.792;2022-07-21T02:42:38;5.03;;;2.70;;
54143;SDS011;40050;47.324;18.792;2022-07-21T02:44:39;6.90;;;3.00;;
54143;SDS011;40050;47.324;18.792;2022-07-21T02:46:40;6.02;;;2.90;;
54143;SDS011;40050;47.324;18.792;2022-07-21T02:48:42;6.80;;;3.10;;
54143;SDS011;40050;47.324;18.792;2022-07-21T02:50:44;5.42;;;3.00;;
54143;SDS011;40050;47.324;18.792;2022-07-21T02:52:45;6.21;;;2.70;;
54143;SDS011;40050;47.324;18.792;2022-07-21T02:54:46;5.72;;;3.00;;
54143;SDS011;40050;47.324;18.792;2022-07-21T02:56:47;5.62;;;2.80;;
54143;SDS011;40050;47.324;18.792;2022-07-21T02:58:52;10.25;;;3.50;;
54143;SDS011;40050;47.324;18.792;2022-07-21T03:00:59;7.10;;;3.00;;
54143;SDS011;40050;47.324;18.792;2022-07-21T03:02:54;6.90;;;2.90;;
54143;SDS011;40050;47.324;18.792;2022-07-21T03:04:55;4.73;;;2.80;;
54143;SDS011;40050;47.324;18.792;2022-07-21T03:06:56;10.25;;;3.30;;
54143;SDS011;40050;47.324;18.792;2022-07-21T03:08:58;4.14;;;2.80;;
54143;SDS011;40050;47.324;18.792;2022-07-21T03:10:59;3.64;;;3.00;;
54143;SDS011;40050;47.324;18.792;2022-07-21T03:13:00;6.01;;;3.20;;
54143;SDS011;40050;47.324;18.792;2022-07-21T03:15:01;3.94;;;3.00;;
54143;SDS011;40050;47.324;18.792;2022-07-21T03:17:03;4.92;;;3.40;;
54143;SDS011;40050;47.324;18.792;2022-07-21T03:19:03;7.38;;;3.49;;
54143;SDS011;40050;47.324;18.792;2022-07-21T03:21:06;4.63;;;3.20;;
54143;SDS011;40050;47.324;18.792;2022-07-21T03:23:07;4.23;;;3.10;;
54143;SDS011;40050;47.324;18.792;2022-07-21T03:25:08;4.13;;;3.20;;
54143;SDS011;40050;47.324;18.792;2022-07-21T03:27:09;5.41;;;3.00;;
54143;SDS011;40050;47.324;18.792;2022-07-21T03:29:10;5.91;;;3.20;;
54143;SDS011;40050;47.324;18.792;2022-07-21T03:31:11;8.37;;;3.30;;
54143;SDS011;40050;47.324;18.792;2022-07-21T03:33:12;6.30;;;3.10;;
54143;SDS011;40050;47.324;18.792;2022-07-21T03:35:14;7.67;;;3.20;;
54143;SDS011;40050;47.324;18.792;2022-07-21T03:37:14;5.31;;;3.10;;
54143;SDS011;40050;47.324;18.792;2022-07-21T03:39:15;6.49;;;3.39;;
54143;SDS011;40050;47.324;18.792;2022-07-21T03:41:16;6.78;;;3.29;;
54143;SDS011;40050;47.324;18.792;2022-07-21T03:43:17;6.00;;;3.19;;
54143;SDS011;40050;47.324;18.792;2022-07-21T03:45:18;6.19;;;3.09;;
54143;SDS011;40050;47.324;18.792;2022-07-21T03:47:19;5.21;;;3.19;;
54143;SDS011;40050;47.324;18.792;2022-07-21T03:49:20;3.73;;;3.09;;
54143;SDS011;40050;47.324;18.792;2022-07-21T03:51:21;5.20;;;3.19;;
54143;SDS011;40050;47.324;18.792;2022-07-21T03:53:23;8.44;;;3.69;;
54143;SDS011;40050;47.324;18.792;2022-07-21T03:55:23;4.61;;;3.29;;
54143;SDS011;40050;47.324;18.792;2022-07-21T03:57:24;4.32;;;3.29;;
54143;SDS011;40050;47.324;18.792;2022-07-21T03:59:26;4.90;;;2.89;;
54143;SDS011;40050;47.324;18.792;2022-07-21T04:01:27;5.49;;;3.49;;
54143;SDS011;40050;47.324;18.792;2022-07-21T04:03:29;6.28;;;3.79;;
54143;SDS011;40050;47.324;18.792;2022-07-21T04:05:31;8.14;;;3.49;;
54143;SDS011;40050;47.324;18.792;2022-07-21T04:07:32;7.84;;;3.39;;
54143;SDS011;40050;47.324;18.792;2022-07-21T04:09:33;6.57;;;3.79;;
54143;SDS011;40050;47.324;18.792;2022-07-21T04:11:34;8.23;;;3.59;;
54143;SDS011;40050;47.324;18.792;2022-07-21T04:13:36;5.79;;;3.69;;
54143;SDS011;40050;47.324;18.792;2022-07-21T04:15:39;5.98;;;2.99;;
54143;SDS011;40050;47.324;18.792;2022-07-21T04:17:39;6.08;;;3.29;;
54143;SDS011;40050;47.324;18.792;2022-07-21T04:19:40;5.59;;;3.09;;
54143;SDS011;40050;47.324;18.792;2022-07-21T04:21:41;9.82;;;3.09;;
54143;SDS011;40050;47.324;18.792;2022-07-21T04:23:42;6.09;;;3.29;;
54143;SDS011;40050;47.324;18.792;2022-07-21T04:25:43;4.71;;;3.19;;
54143;SDS011;40050;47.324;18.792;2022-07-21T04:27:44;7.75;;;2.99;;
54143;SDS011;40050;47.324;18.792;2022-07-21T04:29:45;8.34;;;3.29;;
54143;SDS011;40050;47.324;18.792;2022-07-21T04:31:46;8.34;;;3.49;;
54143;SDS011;40050;47.324;18.792;2022-07-21T04:33:47;6.08;;;3.09;;
54143;SDS011;40050;47.324;18.792;2022-07-21T04:35:48;6.57;;;3.19;;
54143;SDS011;40050;47.324;18.792;2022-07-21T04:37:50;6.48;;;3.39;;
54143;SDS011;40050;47.324;18.792;2022-07-21T04:39:50;6.38;;;3.19;;
54143;SDS011;40050;47.324;18.792;2022-07-21T04:41:52;6.77;;;3.09;;
54143;SDS011;40050;47.324;18.792;2022-07-21T04:43:53;4.51;;;3.19;;
54143;SDS011;40050;47.324;18.792;2022-07-21T04:45:54;7.16;;;3.39;;
54143;SDS011;40050;47.324;18.792;2022-07-21T04:50:58;9.23;;;3.19;;
54143;SDS011;40050;47.324;18.792;2022-07-21T04:52:59;7.76;;;3.19;;
54143;SDS011;40050;47.324;18.792;2022-07-21T04:55:00;8.15;;;3.19;;
54143;SDS011;40050;47.324;18.792;2022-07-21T04:57:01;6.78;;;3.09;;
54143;SDS011;40050;47.324;18.792;2022-07-21T04:59:02;5.40;;;2.80;;
54143;SDS011;40050;47.324;18.792;2022-07-21T05:01:04;9.54;;;3.09;;
54143;SDS011;40050;47.324;18.792;2022-07-21T05:03:04;8.27;;;3.10;;
54143;SDS011;40050;47.324;18.792;2022-07-21T05:05:05;4.92;;;3.00;;
54143;SDS011;40050;47.324;18.792;2022-07-21T05:07:06;6.09;;;2.99;;
54143;SDS011;40050;47.324;18.792;2022-07-21T05:09:07;7.27;;;3.09;;
54143;SDS011;40050;47.324;18.792;2022-07-21T05:11:08;7.86;;;3.19;;
54143;SDS011;40050;47.324;18.792;2022-07-21T05:13:09;7.08;;;3.19;;
54143;SDS011;40050;47.324;18.792;2022-07-21T05:15:10;9.44;;;3.29;;
54143;SDS011;40050;47.324;18.792;2022-07-21T05:17:11;9.92;;;3.19;;
54143;SDS011;40050;47.324;18.792;2022-07-21T05:19:12;8.55;;;2.99;;
54143;SDS011;40050;47.324;18.792;2022-07-21T05:21:13;8.15;;;3.29;;
54143;SDS011;40050;47.324;18.792;2022-07-21T05:23:14;14.32;;;3.09;;
54143;SDS011;40050;47.324;18.792;2022-07-21T05:25:16;10.52;;;3.29;;
54143;SDS011;40050;47.324;18.792;2022-07-21T05:27:16;5.91;;;3.49;;
54143;SDS011;40050;47.324;18.792;2022-07-21T05:29:17;12.99;;;3.69;;
54143;SDS011;40050;47.324;18.792;2022-07-21T05:31:20;10.92;;;3.49;;
54143;SDS011;40050;47.324;18.792;2022-07-21T05:33:21;11.83;;;3.40;;
54143;SDS011;40050;47.324;18.792;2022-07-21T05:35:22;9.08;;;3.00;;
54143;SDS011;40050;47.324;18.792;2022-07-21T05:37:23;9.21;;;3.40;;
54143;SDS011;40050;47.324;18.792;2022-07-21T05:39:24;9.59;;;3.80;;
54143;SDS011;40050;47.324;18.792;2022-07-21T05:41:26;7.42;;;3.60;;
54143;SDS011;40050;47.324;18.792;2022-07-21T05:43:31;7.43;;;3.80;;
54143;SDS011;40050;47.324;18.792;2022-07-21T05:45:32;7.43;;;4.00;;
54143;SDS011;40050;47.324;18.792;2022-07-21T05:47:34;8.72;;;3.70;;
54143;SDS011;40050;47.324;18.792;2022-07-21T05:49:34;13.70;;;3.80;;
54143;SDS011;40050;47.324;18.792;2022-07-21T05:51:36;8.04;;;3.70;;
54143;SDS011;40050;47.324;18.792;2022-07-21T05:53:38;8.24;;;3.40;;
54143;SDS011;40050;47.324;18.792;2022-07-21T05:55:39;8.36;;;3.60;;
54143;SDS011;40050;47.324;18.792;2022-07-21T05:57:40;6.96;;;3.80;;
54143;SDS011;40050;47.324;18.792;2022-07-21T05:59:42;8.95;;;3.70;;
54143;SDS011;40050;47.324;18.792;2022-07-21T06:01:43;6.26;;;3.50;;
54143;SDS011;40050;47.324;18.792;2022-07-21T06:03:45;6.27;;;3.60;;
54143;SDS011;40050;47.324;18.792;2022-07-21T06:05:45;6.27;;;3.60;;
54143;SDS011;40050;47.324;18.792;2022-07-21T06:07:46;5.37;;;3.10;;
54143;SDS011;40050;47.324;18.792;2022-07-21T06:09:48;6.28;;;3.40;;
54143;SDS011;40050;47.324;18.792;2022-07-21T06:11:50;5.08;;;3.60;;
54143;SDS011;40050;47.324;18.792;2022-07-21T06:13:51;4.88;;;3.30;;
54143;SDS011;40050;47.324;18.792;2022-07-21T06:15:52;7.57;;;3.60;;
54143;SDS011;40050;47.324;18.792;2022-07-21T06:17:54;8.87;;;3.70;;
54143;SDS011;40050;47.324;18.792;2022-07-21T06:19:55;6.28;;;3.60;;
54143;SDS011;40050;47.324;18.792;2022-07-21T06:21:56;7.78;;;3.90;;
54143;SDS011;40050;47.324;18.792;2022-07-21T06:23:58;4.49;;;3.10;;
54143;SDS011;40050;47.324;18.792;2022-07-21T06:25:58;5.09;;;3.40;;
54143;SDS011;40050;47.324;18.792;2022-07-21T06:28:00;6.49;;;3.30;;
54143;SDS011;40050;47.324;18.792;2022-07-21T06:30:02;5.29;;;3.10;;
54143;SDS011;40050;47.324;18.792;2022-07-21T06:32:03;5.19;;;3.50;;
54143;SDS011;40050;47.324;18.792;2022-07-21T06:34:05;7.19;;;3.50;;
54143;SDS011;40050;47.324;18.792;2022-07-21T06:36:06;7.69;;;3.30;;
54143;SDS011;40050;47.324;18.792;2022-07-21T06:38:10;8.19;;;3.40;;
54143;SDS011;40050;47.324;18.792;2022-07-21T06:40:09;6.29;;;3.40;;
54143;SDS011;40050;47.324;18.792;2022-07-21T06:42:10;4.99;;;3.60;;
54143;SDS011;40050;47.324;18.792;2022-07-21T06:44:11;6.29;;;3.40;;
54143;SDS011;40050;47.324;18.792;2022-07-21T06:46:12;6.39;;;3.30;;
54143;SDS011;40050;47.324;18.792;2022-07-21T06:48:13;6.49;;;3.60;;
54143;SDS011;40050;47.324;18.792;2022-07-21T06:50:15;7.69;;;3.60;;
54143;SDS011;40050;47.324;18.792;2022-07-21T06:52:16;6.09;;;3.50;;
54143;SDS011;40050;47.324;18.792;2022-07-21T06:54:17;5.99;;;3.30;;
54143;SDS011;40050;47.324;18.792;2022-07-21T06:56:18;5.69;;;3.60;;
54143;SDS011;40050;47.324;18.792;2022-07-21T06:58:21;6.29;;;3.40;;
54143;SDS011;40050;47.324;18.792;2022-07-21T07:00:21;9.29;;;3.40;;
54143;SDS011;40050;47.324;18.792;2022-07-21T07:02:22;8.69;;;3.30;;
54143;SDS011;40050;47.324;18.792;2022-07-21T07:04:23;5.99;;;3.20;;
54143;SDS011;40050;47.324;18.792;2022-07-21T07:06:24;5.49;;;3.10;;
54143;SDS011;40050;47.324;18.792;2022-07-21T07:08:25;7.59;;;3.10;;
54143;SDS011;40050;47.324;18.792;2022-07-21T07:10:27;8.89;;;3.40;;
54143;SDS011;40050;47.324;18.792;2022-07-21T07:12:28;5.59;;;3.30;;
54143;SDS011;40050;47.324;18.792;2022-07-21T07:14:29;5.60;;;3.30;;
54143;SDS011;40050;47.324;18.792;2022-07-21T07:16:30;7.19;;;3.40;;
54143;SDS011;40050;47.324;18.792;2022-07-21T07:18:32;7.79;;;3.80;;
54143;SDS011;40050;47.324;18.792;2022-07-21T07:20:33;9.89;;;3.80;;
54143;SDS011;40050;47.324;18.792;2022-07-21T07:22:36;7.29;;;3.70;;
54143;SDS011;40050;47.324;18.792;2022-07-21T07:24:39;6.30;;;3.30;;
54143;SDS011;40050;47.324;18.792;2022-07-21T07:26:43;6.79;;;3.20;;
54143;SDS011;40050;47.324;18.792;2022-07-21T07:28:43;8.79;;;3.70;;
54143;SDS011;40050;47.324;18.792;2022-07-21T07:30:44;9.79;;;3.20;;
54143;SDS011;40050;47.324;18.792;2022-07-21T07:32:46;6.70;;;3.40;;
54143;SDS011;40050;47.324;18.792;2022-07-21T07:34:47;9.79;;;3.30;;
54143;SDS011;40050;47.324;18.792;2022-07-21T07:36:48;8.49;;;3.60;;
54143;SDS011;40050;47.324;18.792;2022-07-21T07:38:50;7.00;;;3.30;;
54143;SDS011;40050;47.324;18.792;2022-07-21T07:40:51;8.29;;;3.30;;
54143;SDS011;40050;47.324;18.792;2022-07-21T07:42:52;5.20;;;3.30;;
54143;SDS011;40050;47.324;18.792;2022-07-21T07:44:54;5.40;;;3.40;;
54143;SDS011;40050;47.324;18.792;2022-07-21T07:46:55;7.90;;;3.50;;
54143;SDS011;40050;47.324;18.792;2022-07-21T07:48:56;6.70;;;3.30;;
54143;SDS011;40050;47.324;18.792;2022-07-21T07:50:57;5.80;;;3.30;;
54143;SDS011;40050;47.324;18.792;2022-07-21T07:52:58;6.40;;;3.30;;
54143;SDS011;40050;47.324;18.792;2022-07-21T07:55:02;8.00;;;3.50;;
54143;SDS011;40050;47.324;18.792;2022-07-21T07:57:04;7.50;;;3.30;;
54143;SDS011;40050;47.324;18.792;2022-07-21T07:59:05;7.30;;;3.40;;
54143;SDS011;40050;47.324;18.792;2022-07-21T08:01:06;5.30;;;3.20;;
54143;SDS011;40050;47.324;18.792;2022-07-21T08:03:07;4.80;;;3.40;;
54143;SDS011;40050;47.324;18.792;2022-07-21T08:05:08;6.30;;;3.50;;
54143;SDS011;40050;47.324;18.792;2022-07-21T08:07:09;6.50;;;3.20;;
54143;SDS011;40050;47.324;18.792;2022-07-21T08:09:11;10.90;;;3.30;;
54143;SDS011;40050;47.324;18.792;2022-07-21T08:11:12;10.10;;;3.30;;
54143;SDS011;40050;47.324;18.792;2022-07-21T08:13:14;8.00;;;3.40;;
54143;SDS011;40050;47.324;18.792;2022-07-21T08:15:14;8.50;;;3.30;;
54143;SDS011;40050;47.324;18.792;2022-07-21T08:17:15;7.00;;;3.20;;
54143;SDS011;40050;47.324;18.792;2022-07-21T08:19:16;5.20;;;3.20;;
54143;SDS011;40050;47.324;18.792;2022-07-21T08:21:17;6.50;;;3.20;;
54143;SDS011;40050;47.324;18.792;2022-07-21T08:23:20;9.50;;;3.00;;
54143;SDS011;40050;47.324;18.792;2022-07-21T08:25:21;7.90;;;3.00;;
54143;SDS011;40050;47.324;18.792;2022-07-21T08:27:24;8.20;;;3.20;;
54143;SDS011;40050;47.324;18.792;2022-07-21T08:29:26;5.70;;;2.80;;
54143;SDS011;40050;47.324;18.792;2022-07-21T08:31:28;6.00;;;2.90;;
54143;SDS011;40050;47.324;18.792;2022-07-21T08:33:29;10.30;;;3.20;;
54143;SDS011;40050;47.324;18.792;2022-07-21T08:35:32;5.30;;;2.80;;
54143;SDS011;40050;47.324;18.792;2022-07-21T08:37:33;12.60;;;3.30;;
54143;SDS011;40050;47.324;18.792;2022-07-21T08:39:34;5.70;;;3.00;;
54143;SDS011;40050;47.324;18.792;2022-07-21T08:41:35;3.90;;;2.70;;
54143;SDS011;40050;47.324;18.792;2022-07-21T08:43:37;6.30;;;2.90;;
54143;SDS011;40050;47.324;18.792;2022-07-21T08:45:41;4.80;;;2.50;;
54143;SDS011;40050;47.324;18.792;2022-07-21T08:47:42;8.20;;;2.90;;
54143;SDS011;40050;47.324;18.792;2022-07-21T08:49:46;6.40;;;2.80;;
54143;SDS011;40050;47.324;18.792;2022-07-21T08:51:45;5.00;;;2.90;;
54143;SDS011;40050;47.324;18.792;2022-07-21T08:53:46;9.60;;;3.30;;
54143;SDS011;40050;47.324;18.792;2022-07-21T08:55:47;4.40;;;2.60;;
54143;SDS011;40050;47.324;18.792;2022-07-21T08:57:49;9.90;;;3.20;;
54143;SDS011;40050;47.324;18.792;2022-07-21T08:59:50;10.40;;;3.20;;
54143;SDS011;40050;47.324;18.792;2022-07-21T09:01:52;11.60;;;3.10;;
54143;SDS011;40050;47.324;18.792;2022-07-21T09:04:18;4.60;;;2.80;;
54143;SDS011;40050;47.324;18.792;2022-07-21T09:06:03;7.20;;;2.70;;
54143;SDS011;40050;47.324;18.792;2022-07-21T09:07:59;4.30;;;2.90;;
54143;SDS011;40050;47.324;18.792;2022-07-21T09:10:02;6.60;;;3.00;;
54143;SDS011;40050;47.324;18.792;2022-07-21T09:12:02;5.90;;;2.80;;
54143;SDS011;40050;47.324;18.792;2022-07-21T09:14:11;7.40;;;2.90;;
54143;SDS011;40050;47.324;18.792;2022-07-21T09:16:06;6.50;;;2.80;;
54143;SDS011;40050;47.324;18.792;2022-07-21T09:18:11;5.60;;;3.00;;
54143;SDS011;40050;47.324;18.792;2022-07-21T09:20:20;4.20;;;3.00;;
54143;SDS011;40050;47.324;18.792;2022-07-21T09:22:15;5.80;;;2.80;;
54143;SDS011;40050;47.324;18.792;2022-07-21T09:26:19;9.00;;;2.80;;
54143;SDS011;40050;47.324;18.792;2022-07-21T09:28:32;5.80;;;3.20;;
54143;SDS011;40050;47.324;18.792;2022-07-21T09:32:57;4.80;;;2.80;;
54143;SDS011;40050;47.324;18.792;2022-07-21T09:35:09;4.60;;;2.90;;
54143;SDS011;40050;47.324;18.792;2022-07-21T09:37:00;7.00;;;2.80;;
54143;SDS011;40050;47.324;18.792;2022-07-21T09:39:02;7.40;;;2.80;;
54143;SDS011;40050;47.324;18.792;2022-07-21T09:41:16;7.80;;;2.80;;
54143;SDS011;40050;47.324;18.792;2022-07-21T09:43:29;6.00;;;2.70;;
54143;SDS011;40050;47.324;18.792;2022-07-21T09:45:25;4.90;;;2.60;;
54143;SDS011;40050;47.324;18.792;2022-07-21T09:47:39;8.20;;;3.00;;
54143;SDS011;40050;47.324;18.792;2022-07-21T09:49:39;7.80;;;2.80;;
54143;SDS011;40050;47.324;18.792;2022-07-21T09:52:03;8.20;;;2.90;;
54143;SDS011;40050;47.324;18.792;2022-07-21T09:54:15;5.60;;;3.00;;
54143;SDS011;40050;47.324;18.792;2022-07-21T09:56:17;5.40;;;2.90;;
54143;SDS011;40050;47.324;18.792;2022-07-21T09:58:17;8.40;;;2.90;;
54143;SDS011;40050;47.324;18.792;2022-07-21T10:00:19;5.80;;;2.80;;
54143;SDS011;40050;47.324;18.792;2022-07-21T10:02:21;5.80;;;2.80;;
54143;SDS011;40050;47.324;18.792;2022-07-21T10:04:22;7.60;;;3.00;;
54143;SDS011;40050;47.324;18.792;2022-07-21T10:06:29;3.50;;;2.70;;
54143;SDS011;40050;47.324;18.792;2022-07-21T10:08:26;7.00;;;3.00;;
54143;SDS011;40050;47.324;18.792;2022-07-21T10:10:27;8.00;;;3.20;;
54143;SDS011;40050;47.324;18.792;2022-07-21T10:12:29;4.50;;;2.80;;
54143;SDS011;40050;47.324;18.792;2022-07-21T10:14:30;7.10;;;2.90;;
54143;SDS011;40050;47.324;18.792;2022-07-21T10:16:31;4.80;;;2.90;;
54143;SDS011;40050;47.324;18.792;2022-07-21T10:18:35;6.10;;;3.10;;
54143;SDS011;40050;47.324;18.792;2022-07-21T10:20:48;7.40;;;2.90;;
54143;SDS011;40050;47.324;18.792;2022-07-21T10:23:05;7.50;;;2.80;;
54143;SDS011;40050;47.324;18.792;2022-07-21T10:25:02;6.50;;;3.50;;
54143;SDS011;40050;47.324;18.792;2022-07-21T10:27:04;6.30;;;2.80;;
54143;SDS011;40050;47.324;18.792;2022-07-21T10:29:05;6.80;;;2.80;;
54143;SDS011;40050;47.324;18.792;2022-07-21T10:31:17;6.20;;;2.90;;
54143;SDS011;40050;47.324;18.792;2022-07-21T10:38:26;4.40;;;2.90;;
54143;SDS011;40050;47.324;18.792;2022-07-21T10:42:19;5.90;;;3.10;;
54143;SDS011;40050;47.324;18.792;2022-07-21T10:46:31;6.60;;;2.90;;
54143;SDS011;40050;47.324;18.792;2022-07-21T10:50:38;6.40;;;3.00;;
54143;SDS011;40050;47.324;18.792;2022-07-21T10:54:42;5.90;;;2.60;;
54143;SDS011;40050;47.324;18.792;2022-07-21T10:59:03;6.70;;;2.80;;
54143;SDS011;40050;47.324;18.792;2022-07-21T11:03:20;9.70;;;2.70;;
54143;SDS011;40050;47.324;18.792;2022-07-21T11:05:20;9.30;;;2.80;;
54143;SDS011;40050;47.324;18.792;2022-07-21T11:07:21;7.00;;;2.40;;
54143;SDS011;40050;47.324;18.792;2022-07-21T11:09:24;5.10;;;2.40;;
54143;SDS011;40050;47.324;18.792;2022-07-21T11:11:25;3.60;;;2.30;;
54143;SDS011;40050;47.324;18.792;2022-07-21T11:13:26;6.60;;;2.60;;
54143;SDS011;40050;47.324;18.792;2022-07-21T11:17:29;7.10;;;2.30;;
54143;SDS011;40050;47.324;18.792;2022-07-21T11:21:33;4.00;;;2.40;;
54143;SDS011;40050;47.324;18.792;2022-07-21T11:23:41;4.00;;;2.50;;
54143;SDS011;40050;47.324;18.792;2022-07-21T11:25:36;7.50;;;2.60;;
54143;SDS011;40050;47.324;18.792;2022-07-21T11:27:38;5.20;;;2.30;;
54143;SDS011;40050;47.324;18.792;2022-07-21T11:29:40;7.80;;;2.60;;
54143;SDS011;40050;47.324;18.792;2022-07-21T11:31:45;5.90;;;2.60;;
54143;SDS011;40050;47.324;18.792;2022-07-21T11:33:51;4.50;;;2.50;;
54143;SDS011;40050;47.324;18.792;2022-07-21T11:35:53;5.90;;;2.30;;
54143;SDS011;40050;47.324;18.792;2022-07-21T11:38:07;6.20;;;2.40;;
54143;SDS011;40050;47.324;18.792;2022-07-21T11:40:09;7.70;;;2.00;;
54143;SDS011;40050;47.324;18.792;2022-07-21T11:42:11;6.40;;;2.30;;
54143;SDS011;40050;47.324;18.792;2022-07-21T11:44:12;7.90;;;2.30;;
54143;SDS011;40050;47.324;18.792;2022-07-21T11:46:23;5.40;;;2.00;;
54143;SDS011;40050;47.324;18.792;2022-07-21T11:48:33;5.30;;;2.20;;
54143;SDS011;40050;47.324;18.792;2022-07-21T11:50:28;6.80;;;2.30;;
54143;SDS011;40050;47.324;18.792;2022-07-21T11:52:37;5.00;;;2.40;;
54143;SDS011;40050;47.324;18.792;2022-07-21T11:54:50;4.70;;;2.40;;
54143;SDS011;40050;47.324;18.792;2022-07-21T11:56:51;8.80;;;2.50;;
54143;SDS011;40050;47.324;18.792;2022-07-21T11:58:58;4.10;;;2.20;;
54143;SDS011;40050;47.324;18.792;2022-07-21T12:01:05;4.90;;;2.50;;
54143;SDS011;40050;47.324;18.792;2022-07-21T12:03:06;7.40;;;2.00;;
54143;SDS011;40050;47.324;18.792;2022-07-21T12:05:13;4.10;;;2.00;;
54143;SDS011;40050;47.324;18.792;2022-07-21T12:07:16;3.30;;;2.30;;
54143;SDS011;40050;47.324;18.792;2022-07-21T12:09:16;4.70;;;2.30;;
54143;SDS011;40050;47.324;18.792;2022-07-21T12:11:17;8.00;;;2.40;;
54143;SDS011;40050;47.324;18.792;2022-07-21T12:13:20;7.60;;;2.70;;
54143;SDS011;40050;47.324;18.792;2022-07-21T12:15:22;6.00;;;2.30;;
54143;SDS011;40050;47.324;18.792;2022-07-21T12:17:38;5.00;;;2.40;;
54143;SDS011;40050;47.324;18.792;2022-07-21T12:19:41;5.20;;;2.30;;
54143;SDS011;40050;47.324;18.792;2022-07-21T12:21:44;7.70;;;2.30;;
54143;SDS011;40050;47.324;18.792;2022-07-21T12:23:51;5.10;;;2.10;;
54143;SDS011;40050;47.324;18.792;2022-07-21T12:26:03;5.50;;;2.10;;
54143;SDS011;40050;47.324;18.792;2022-07-21T12:28:05;8.00;;;2.50;;
54143;SDS011;40050;47.324;18.792;2022-07-21T12:30:08;5.20;;;2.40;;
54143;SDS011;40050;47.324;18.792;2022-07-21T12:32:08;6.10;;;2.30;;